There are multiple Weather-warnings   Click here for more information


Meteo18 Weather Cam more information Meteo18 Weather Cam


Thunder radar more information blitzortung!


warning for Snow/Ice more information rain snow radar


Visit our other weather sites:

Template documentation
and downloads

And another site



Weather Underground History page Text

Daily Summary for January 31, 2018 Units:  Both    English   Metric
« Previous Day
Next Day »
Daily Weekly Monthly Yearly Custom
  High: Low: Average:
Temperature: TemperatureC °F /  -17.8 °C 4.9 °F /  -15.1 °C 7.2 °F /  -13.8 °C
Dew Point: DewpointC °F /  -17.8 °C 3.6 °F /  -15.8 °C 5.7 °F /  -14.6 °C
Humidity: Humidity % 84 % 90 %
Wind Speed: WindSpeedKMH mph /  0 km/h - 15 mph /  24.1 km/h
Wind Gust: WindSpeedGustKMH mph /  0 km/h - -
Wind:- - SW
Pressure: PressurehPa in /  0 hPa 1008.4 in /  34144.4 hPa -
Precipitation: 15.7 in /  398.78 mm    
Historical Graphs
 
 
Tabular Data for January 31, 2018
Time Temperature Dew Point Pressure Wind Wind Speed Wind Gust Humidity Rainfall Rate (Hourly)
TemperatureC °F /  -17.8 °C DewpointC °F /  -17.8 °C PressurehPa in /  0 hPa Calm     Humidity % HourlyPrecipMM in /  0 mm
00:03 8.4 °F /  -13.1 °C 7.3 °F /  -13.7 °C 1026.3 in /  34750.5 hPa WSW 6.4 mph /  10.3 km/h 6.4 mph /  10.3 km/h 93 % 0.0 in /  0 mm
00:09 8.4 °F /  -13.1 °C 7.3 °F /  -13.7 °C 1026.3 in /  34750.5 hPa SW 6.4 mph /  10.3 km/h 6.4 mph /  10.3 km/h 93 % 0.0 in /  0 mm
00:15 8.4 °F /  -13.1 °C 7.2 °F /  -13.8 °C 1026.3 in /  34750.5 hPa SW 4.7 mph /  7.6 km/h 8.0 mph /  12.9 km/h 92 % 0.0 in /  0 mm
00:21 8.4 °F /  -13.1 °C 7.2 °F /  -13.8 °C 1026.3 in /  34750.5 hPa WSW 3.2 mph /  5.1 km/h 8.0 mph /  12.9 km/h 92 % 0.0 in /  0 mm
00:27 8.4 °F /  -13.1 °C 7.0 °F /  -13.9 °C 1026.3 in /  34750.5 hPa WSW 4.7 mph /  7.6 km/h 6.4 mph /  10.3 km/h 91 % 0.0 in /  0 mm
00:33 8.4 °F /  -13.1 °C 7.0 °F /  -13.9 °C 1026.0 in /  34740.4 hPa WSW 4.7 mph /  7.6 km/h 8.0 mph /  12.9 km/h 91 % 0.0 in /  0 mm
00:39 8.4 °F /  -13.1 °C 6.9 °F /  -13.9 °C 1026.0 in /  34740.4 hPa SW 4.7 mph /  7.6 km/h 6.4 mph /  10.3 km/h 90 % 0.0 in /  0 mm
00:45 8.4 °F /  -13.1 °C 6.9 °F /  -13.9 °C 1026.3 in /  34750.5 hPa West 4.7 mph /  7.6 km/h 9.7 mph /  15.6 km/h 90 % 0.0 in /  0 mm
00:51 8.4 °F /  -13.1 °C 6.7 °F /  -14.1 °C 1026.0 in /  34740.4 hPa WSW 6.4 mph /  10.3 km/h 6.4 mph /  10.3 km/h 89 % 0.0 in /  0 mm
00:57 8.4 °F /  -13.1 °C 6.7 °F /  -14.1 °C 1026.0 in /  34740.4 hPa West 9.7 mph /  15.6 km/h 14.5 mph /  23.3 km/h 89 % 0.0 in /  0 mm
01:03 8.5 °F /  -13.1 °C 6.6 °F /  -14.1 °C 1026.3 in /  34750.5 hPa WSW 3.2 mph /  5.1 km/h 8.0 mph /  12.9 km/h 88 % 0.0 in /  0 mm
01:09 8.4 °F /  -13.1 °C 6.7 °F /  -14.1 °C 1026.0 in /  34740.4 hPa WSW 6.4 mph /  10.3 km/h 6.4 mph /  10.3 km/h 89 % 0.0 in /  0 mm
01:15 8.4 °F /  -13.1 °C 6.5 °F /  -14.2 °C 1026.0 in /  34740.4 hPa South 3.2 mph /  5.1 km/h 9.7 mph /  15.6 km/h 88 % 0.0 in /  0 mm
01:21 8.4 °F /  -13.1 °C 6.5 °F /  -14.2 °C 1025.6 in /  34726.8 hPa SW 7.9 mph /  12.7 km/h 8.0 mph /  12.9 km/h 88 % 0.0 in /  0 mm
01:27 8.5 °F /  -13.1 °C 6.6 °F /  -14.1 °C 1025.6 in /  34726.8 hPa WSW 4.7 mph /  7.6 km/h 11.3 mph /  18.2 km/h 88 % 0.0 in /  0 mm
01:33 8.4 °F /  -13.1 °C 6.7 °F /  -14.1 °C 1025.6 in /  34726.8 hPa West 3.2 mph /  5.1 km/h 4.8 mph /  7.7 km/h 89 % 0.0 in /  0 mm
01:39 8.4 °F /  -13.1 °C 6.7 °F /  -14.1 °C 1025.6 in /  34726.8 hPa SW 4.7 mph /  7.6 km/h 8.0 mph /  12.9 km/h 89 % 0.0 in /  0 mm
01:45 8.3 °F /  -13.2 °C 6.8 °F /  -14 °C 1025.3 in /  34716.7 hPa SSW 3.2 mph /  5.1 km/h 9.7 mph /  15.6 km/h 90 % 0.0 in /  0 mm
01:51 8.2 °F /  -13.2 °C 6.8 °F /  -14 °C 1025.3 in /  34716.7 hPa SW 7.9 mph /  12.7 km/h 8.0 mph /  12.9 km/h 91 % 0.0 in /  0 mm
01:57 8.1 °F /  -13.3 °C 6.9 °F /  -13.9 °C 1025.3 in /  34716.7 hPa SSW 4.7 mph /  7.6 km/h 8.0 mph /  12.9 km/h 92 % 0.0 in /  0 mm
02:03 8.1 °F /  -13.3 °C 6.9 °F /  -13.9 °C 1025.3 in /  34716.7 hPa SW 6.4 mph /  10.3 km/h 9.7 mph /  15.6 km/h 92 % 0.0 in /  0 mm
02:09 8.1 °F /  -13.3 °C 6.7 °F /  -14.1 °C 1024.9 in /  34703.1 hPa West 3.2 mph /  5.1 km/h 8.0 mph /  12.9 km/h 91 % 0.0 in /  0 mm
02:15 8.1 °F /  -13.3 °C 6.7 °F /  -14.1 °C 1024.9 in /  34703.1 hPa SW 3.2 mph /  5.1 km/h 11.3 mph /  18.2 km/h 91 % 0.0 in /  0 mm
02:21 8.1 °F /  -13.3 °C 6.7 °F /  -14.1 °C 1024.9 in /  34703.1 hPa WSW 4.7 mph /  7.6 km/h 9.7 mph /  15.6 km/h 91 % 0.0 in /  0 mm
02:27 8.1 °F /  -13.3 °C 6.7 °F /  -14.1 °C 1024.6 in /  34693 hPa SW 7.9 mph /  12.7 km/h 9.7 mph /  15.6 km/h 91 % 0.0 in /  0 mm
02:33 8.1 °F /  -13.3 °C 6.7 °F /  -14.1 °C 1024.6 in /  34693 hPa WSW 4.7 mph /  7.6 km/h 8.0 mph /  12.9 km/h 91 % 0.0 in /  0 mm
02:39 8.1 °F /  -13.3 °C 6.7 °F /  -14.1 °C 1024.6 in /  34693 hPa WSW 4.7 mph /  7.6 km/h 11.3 mph /  18.2 km/h 91 % 0.0 in /  0 mm
02:45 8.1 °F /  -13.3 °C 6.7 °F /  -14.1 °C 1024.6 in /  34693 hPa West 4.7 mph /  7.6 km/h 12.9 mph /  20.8 km/h 91 % 0.0 in /  0 mm
02:51 8.1 °F /  -13.3 °C 6.7 °F /  -14.1 °C 1024.6 in /  34693 hPa WSW 6.4 mph /  10.3 km/h 8.0 mph /  12.9 km/h 91 % 0.0 in /  0 mm
02:57 8.1 °F /  -13.3 °C 6.7 °F /  -14.1 °C 1024.3 in /  34682.8 hPa WSW 6.4 mph /  10.3 km/h 8.0 mph /  12.9 km/h 91 % 0.0 in /  0 mm
03:03 8.2 °F /  -13.2 °C 6.7 °F /  -14.1 °C 1023.9 in /  34669.3 hPa SW 6.4 mph /  10.3 km/h 14.5 mph /  23.3 km/h 90 % 0.0 in /  0 mm
03:09 8.2 °F /  -13.2 °C 6.7 °F /  -14.1 °C 1023.9 in /  34669.3 hPa SSW 11.1 mph /  17.9 km/h 17.7 mph /  28.5 km/h 90 % 0.0 in /  0 mm
03:15 8.3 °F /  -13.2 °C 6.6 °F /  -14.1 °C 1023.9 in /  34669.3 hPa WSW 13.0 mph /  20.9 km/h 17.7 mph /  28.5 km/h 89 % 0.0 in /  0 mm
03:21 8.3 °F /  -13.2 °C 6.6 °F /  -14.1 °C 1023.9 in /  34669.3 hPa West 13.0 mph /  20.9 km/h 16.1 mph /  25.9 km/h 89 % 0.0 in /  0 mm
03:27 8.3 °F /  -13.2 °C 6.6 °F /  -14.1 °C 1023.9 in /  34669.3 hPa SW 14.3 mph /  23 km/h 17.7 mph /  28.5 km/h 89 % 0.0 in /  0 mm
03:33 8.2 °F /  -13.2 °C 6.7 °F /  -14.1 °C 1023.9 in /  34669.3 hPa WSW 7.9 mph /  12.7 km/h 16.1 mph /  25.9 km/h 90 % 0.0 in /  0 mm
03:39 8.2 °F /  -13.2 °C 6.7 °F /  -14.1 °C 1023.9 in /  34669.3 hPa WSW 9.7 mph /  15.6 km/h 16.1 mph /  25.9 km/h 90 % 0.0 in /  0 mm
03:45 8.2 °F /  -13.2 °C 6.8 °F /  -14 °C 1023.6 in /  34659.1 hPa WSW 14.3 mph /  23 km/h 16.1 mph /  25.9 km/h 91 % 0.0 in /  0 mm
03:51 8.1 °F /  -13.3 °C 6.7 °F /  -14.1 °C 1023.6 in /  34659.1 hPa WSW 14.3 mph /  23 km/h 16.1 mph /  25.9 km/h 91 % 0.0 in /  0 mm
03:57 8.1 °F /  -13.3 °C 6.7 °F /  -14.1 °C 1023.6 in /  34659.1 hPa SW 13.0 mph /  20.9 km/h 17.7 mph /  28.5 km/h 91 % 0.0 in /  0 mm
04:03 8.0 °F /  -13.3 °C 6.8 °F /  -14 °C 1023.6 in /  34659.1 hPa West 11.1 mph /  17.9 km/h 14.5 mph /  23.3 km/h 92 % 0.0 in /  0 mm
04:09 7.9 °F /  -13.4 °C 6.7 °F /  -14.1 °C 1023.6 in /  34659.1 hPa SW 4.7 mph /  7.6 km/h 11.3 mph /  18.2 km/h 92 % 0.0 in /  0 mm
04:15 7.9 °F /  -13.4 °C 6.8 °F /  -14 °C 1023.2 in /  34645.6 hPa SW 4.7 mph /  7.6 km/h 9.7 mph /  15.6 km/h 93 % 0.0 in /  0 mm
04:21 7.9 °F /  -13.4 °C 6.8 °F /  -14 °C 1023.2 in /  34645.6 hPa SW 11.1 mph /  17.9 km/h 11.3 mph /  18.2 km/h 93 % 0.0 in /  0 mm
04:27 7.8 °F /  -13.4 °C 6.7 °F /  -14.1 °C 1023.2 in /  34645.6 hPa SW 4.7 mph /  7.6 km/h 12.9 mph /  20.8 km/h 93 % 0.0 in /  0 mm
04:33 7.8 °F /  -13.4 °C 6.7 °F /  -14.1 °C 1023.2 in /  34645.6 hPa SW 7.9 mph /  12.7 km/h 8.0 mph /  12.9 km/h 93 % 0.0 in /  0 mm
04:39 7.8 °F /  -13.4 °C 6.7 °F /  -14.1 °C 1023.2 in /  34645.6 hPa SW 7.9 mph /  12.7 km/h 9.7 mph /  15.6 km/h 93 % 0.0 in /  0 mm
04:45 7.8 °F /  -13.4 °C 6.7 °F /  -14.1 °C 1023.2 in /  34645.6 hPa SSW 9.7 mph /  15.6 km/h 14.5 mph /  23.3 km/h 93 % 0.0 in /  0 mm
04:51 7.8 °F /  -13.4 °C 6.7 °F /  -14.1 °C 1023.2 in /  34645.6 hPa SW 7.9 mph /  12.7 km/h 14.5 mph /  23.3 km/h 93 % 0.0 in /  0 mm
04:57 7.8 °F /  -13.4 °C 6.7 °F /  -14.1 °C 1023.2 in /  34645.6 hPa SW 13.0 mph /  20.9 km/h 13.0 mph /  20.9 km/h 93 % 0.0 in /  0 mm
05:03 7.8 °F /  -13.4 °C 6.6 °F /  -14.1 °C 1022.9 in /  34635.4 hPa SW 9.7 mph /  15.6 km/h 14.5 mph /  23.3 km/h 92 % 0.0 in /  0 mm
05:09 7.9 °F /  -13.4 °C 6.5 °F /  -14.2 °C 1022.9 in /  34635.4 hPa SW 7.9 mph /  12.7 km/h 14.5 mph /  23.3 km/h 91 % 0.0 in /  0 mm
05:16 7.9 °F /  -13.4 °C 6.5 °F /  -14.2 °C 1022.6 in /  34625.2 hPa SW 4.7 mph /  7.6 km/h 14.5 mph /  23.3 km/h 91 % 0.0 in /  0 mm
05:22 7.9 °F /  -13.4 °C 6.5 °F /  -14.2 °C 1022.6 in /  34625.2 hPa SW 4.7 mph /  7.6 km/h 11.3 mph /  18.2 km/h 91 % 0.0 in /  0 mm
05:28 7.8 °F /  -13.4 °C 6.4 °F /  -14.2 °C 1022.6 in /  34625.2 hPa WSW 4.7 mph /  7.6 km/h 11.3 mph /  18.2 km/h 91 % 0.0 in /  0 mm
05:34 7.8 °F /  -13.4 °C 6.4 °F /  -14.2 °C 1022.2 in /  34611.7 hPa SW 13.0 mph /  20.9 km/h 17.7 mph /  28.5 km/h 91 % 0.0 in /  0 mm
05:40 7.9 °F /  -13.4 °C 6.5 °F /  -14.2 °C 1022.2 in /  34611.7 hPa SW 11.1 mph /  17.9 km/h 16.1 mph /  25.9 km/h 91 % 0.0 in /  0 mm
05:46 7.9 °F /  -13.4 °C 6.4 °F /  -14.2 °C 1022.2 in /  34611.7 hPa WSW 11.1 mph /  17.9 km/h 11.3 mph /  18.2 km/h 90 % 0.0 in /  0 mm
05:52 7.9 °F /  -13.4 °C 6.4 °F /  -14.2 °C 1022.2 in /  34611.7 hPa SW 9.7 mph /  15.6 km/h 14.5 mph /  23.3 km/h 90 % 0.0 in /  0 mm
05:58 7.9 °F /  -13.4 °C 6.4 °F /  -14.2 °C 1022.2 in /  34611.7 hPa SW 14.3 mph /  23 km/h 22.5 mph /  36.2 km/h 90 % 0.0 in /  0 mm
06:04 7.9 °F /  -13.4 °C 6.4 °F /  -14.2 °C 1022.2 in /  34611.7 hPa SW 4.7 mph /  7.6 km/h 17.7 mph /  28.5 km/h 90 % 0.0 in /  0 mm
06:10 7.9 °F /  -13.4 °C 6.4 °F /  -14.2 °C 1021.9 in /  34601.5 hPa WSW 20.9 mph /  33.6 km/h 22.5 mph /  36.2 km/h 90 % 0.0 in /  0 mm
06:16 7.9 °F /  -13.4 °C 6.4 °F /  -14.2 °C 1021.9 in /  34601.5 hPa SW 7.9 mph /  12.7 km/h 14.5 mph /  23.3 km/h 90 % 0.0 in /  0 mm
06:22 7.8 °F /  -13.4 °C 6.1 °F /  -14.4 °C 1021.9 in /  34601.5 hPa SW 16.3 mph /  26.2 km/h 24.1 mph /  38.8 km/h 89 % 0.0 in /  0 mm
06:28 7.8 °F /  -13.4 °C 6.1 °F /  -14.4 °C 1021.9 in /  34601.5 hPa WSW 14.3 mph /  23 km/h 20.9 mph /  33.6 km/h 89 % 0.0 in /  0 mm
06:34 7.8 °F /  -13.4 °C 6.1 °F /  -14.4 °C 1021.6 in /  34591.4 hPa WSW 9.7 mph /  15.6 km/h 17.7 mph /  28.5 km/h 89 % 0.0 in /  0 mm
06:40 7.8 °F /  -13.4 °C 6.1 °F /  -14.4 °C 1021.9 in /  34601.5 hPa SW 9.7 mph /  15.6 km/h 16.1 mph /  25.9 km/h 89 % 0.0 in /  0 mm
06:46 7.8 °F /  -13.4 °C 5.9 °F /  -14.5 °C 1021.6 in /  34591.4 hPa WSW 16.3 mph /  26.2 km/h 32.2 mph /  51.8 km/h 88 % 0.0 in /  0 mm
06:52 7.8 °F /  -13.4 °C 5.8 °F /  -14.6 °C 1021.6 in /  34591.4 hPa SW 20.9 mph /  33.6 km/h 25.7 mph /  41.4 km/h 87 % 0.0 in /  0 mm
06:58 7.8 °F /  -13.4 °C 5.8 °F /  -14.6 °C 1021.6 in /  34591.4 hPa SSW 14.3 mph /  23 km/h 17.7 mph /  28.5 km/h 87 % 0.0 in /  0 mm
07:04 7.7 °F /  -13.5 °C 5.7 °F /  -14.6 °C 1021.2 in /  34577.8 hPa WSW 6.4 mph /  10.3 km/h 22.5 mph /  36.2 km/h 87 % 0.0 in /  0 mm
07:10 7.7 °F /  -13.5 °C 5.7 °F /  -14.6 °C 1021.2 in /  34577.8 hPa WSW 14.3 mph /  23 km/h 22.5 mph /  36.2 km/h 87 % 0.0 in /  0 mm
07:16 7.7 °F /  -13.5 °C 5.5 °F /  -14.7 °C 1021.6 in /  34591.4 hPa SW 14.3 mph /  23 km/h 25.7 mph /  41.4 km/h 86 % 0.0 in /  0 mm
07:22 7.7 °F /  -13.5 °C 5.3 °F /  -14.8 °C 1021.6 in /  34591.4 hPa WSW 16.3 mph /  26.2 km/h 27.4 mph /  44.1 km/h 85 % 0.0 in /  0 mm
07:28 7.6 °F /  -13.6 °C 5.4 °F /  -14.8 °C 1021.6 in /  34591.4 hPa West 16.3 mph /  26.2 km/h 16.3 mph /  26.2 km/h 86 % 0.0 in /  0 mm
07:34 7.5 °F /  -13.6 °C 5.1 °F /  -14.9 °C 1021.2 in /  34577.8 hPa West 17.7 mph /  28.5 km/h 17.7 mph /  28.5 km/h 85 % 0.0 in /  0 mm
07:40 7.5 °F /  -13.6 °C 5.1 °F /  -14.9 °C 1021.6 in /  34591.4 hPa SW 11.1 mph /  17.9 km/h 25.7 mph /  41.4 km/h 85 % 0.0 in /  0 mm
07:46 7.4 °F /  -13.7 °C 5.0 °F /  -15 °C 1021.2 in /  34577.8 hPa West 17.7 mph /  28.5 km/h 25.7 mph /  41.4 km/h 85 % 0.0 in /  0 mm
07:52 7.4 °F /  -13.7 °C 5.0 °F /  -15 °C 1021.2 in /  34577.8 hPa WSW 13.0 mph /  20.9 km/h 20.9 mph /  33.6 km/h 85 % 0.0 in /  0 mm
07:58 7.4 °F /  -13.7 °C 5.0 °F /  -15 °C 1021.2 in /  34577.8 hPa WSW 11.1 mph /  17.9 km/h 20.9 mph /  33.6 km/h 85 % 0.0 in /  0 mm
08:04 7.3 °F /  -13.7 °C 4.9 °F /  -15.1 °C 1021.2 in /  34577.8 hPa WSW 9.7 mph /  15.6 km/h 24.1 mph /  38.8 km/h 85 % 0.0 in /  0 mm
08:10 7.3 °F /  -13.7 °C 5.1 °F /  -14.9 °C 1021.2 in /  34577.8 hPa WSW 20.9 mph /  33.6 km/h 20.9 mph /  33.6 km/h 86 % 0.0 in /  0 mm
08:16 7.3 °F /  -13.7 °C 4.9 °F /  -15.1 °C 1021.2 in /  34577.8 hPa SSW 6.4 mph /  10.3 km/h 24.1 mph /  38.8 km/h 85 % 0.0 in /  0 mm
08:22 7.3 °F /  -13.7 °C 4.9 °F /  -15.1 °C 1021.2 in /  34577.8 hPa SSW 11.1 mph /  17.9 km/h 20.9 mph /  33.6 km/h 85 % 0.0 in /  0 mm
08:28 7.2 °F /  -13.8 °C 4.8 °F /  -15.1 °C 1021.2 in /  34577.8 hPa WSW 6.4 mph /  10.3 km/h 17.7 mph /  28.5 km/h 85 % 0.0 in /  0 mm
08:34 7.2 °F /  -13.8 °C 5.0 °F /  -15 °C 1021.2 in /  34577.8 hPa SW 14.3 mph /  23 km/h 22.5 mph /  36.2 km/h 86 % 0.0 in /  0 mm
08:40 7.1 °F /  -13.8 °C 4.9 °F /  -15.1 °C 1021.2 in /  34577.8 hPa SW 22.7 mph /  36.5 km/h 24.1 mph /  38.8 km/h 86 % 0.0 in /  0 mm
08:46 7.0 °F /  -13.9 °C 4.8 °F /  -15.1 °C 1021.2 in /  34577.8 hPa SW 13.0 mph /  20.9 km/h 27.4 mph /  44.1 km/h 86 % 0.0 in /  0 mm
08:52 6.9 °F /  -13.9 °C 4.7 °F /  -15.2 °C 1021.2 in /  34577.8 hPa SW 9.7 mph /  15.6 km/h 25.7 mph /  41.4 km/h 86 % 0.0 in /  0 mm
08:58 6.9 °F /  -13.9 °C 4.9 °F /  -15.1 °C 1020.9 in /  34567.7 hPa SW 19.5 mph /  31.4 km/h 19.5 mph /  31.4 km/h 87 % 0.0 in /  0 mm
09:04 6.9 °F /  -13.9 °C 4.9 °F /  -15.1 °C 1020.9 in /  34567.7 hPa SW 16.3 mph /  26.2 km/h 16.3 mph /  26.2 km/h 87 % 0.0 in /  0 mm
09:10 6.9 °F /  -13.9 °C 4.9 °F /  -15.1 °C 1020.5 in /  34554.1 hPa WSW 17.7 mph /  28.5 km/h 22.5 mph /  36.2 km/h 87 % 0.0 in /  0 mm
09:16 6.9 °F /  -13.9 °C 4.7 °F /  -15.2 °C 1020.5 in /  34554.1 hPa SW 13.0 mph /  20.9 km/h 20.9 mph /  33.6 km/h 86 % 0.0 in /  0 mm
09:22 6.9 °F /  -13.9 °C 4.7 °F /  -15.2 °C 1020.5 in /  34554.1 hPa SW 20.9 mph /  33.6 km/h 22.5 mph /  36.2 km/h 86 % 0.0 in /  0 mm
09:28 6.9 °F /  -13.9 °C 4.9 °F /  -15.1 °C 1020.5 in /  34554.1 hPa SW 16.3 mph /  26.2 km/h 20.9 mph /  33.6 km/h 87 % 0.0 in /  0 mm
09:34 6.9 °F /  -13.9 °C 4.9 °F /  -15.1 °C 1020.5 in /  34554.1 hPa SSW 16.3 mph /  26.2 km/h 25.7 mph /  41.4 km/h 87 % 0.0 in /  0 mm
09:40 7.1 °F /  -13.8 °C 5.1 °F /  -14.9 °C 1020.9 in /  34567.7 hPa WSW 13.0 mph /  20.9 km/h 16.1 mph /  25.9 km/h 87 % 0.0 in /  0 mm
09:46 7.1 °F /  -13.8 °C 4.9 °F /  -15.1 °C 1020.5 in /  34554.1 hPa SSW 13.0 mph /  20.9 km/h 22.5 mph /  36.2 km/h 86 % 0.0 in /  0 mm
09:52 7.1 °F /  -13.8 °C 4.9 °F /  -15.1 °C 1020.2 in /  34544 hPa WSW 16.3 mph /  26.2 km/h 32.2 mph /  51.8 km/h 86 % 0.0 in /  0 mm
09:58 7.1 °F /  -13.8 °C 5.1 °F /  -14.9 °C 1020.2 in /  34544 hPa SW 17.7 mph /  28.5 km/h 30.6 mph /  49.2 km/h 87 % 0.0 in /  0 mm
10:04 7.1 °F /  -13.8 °C 5.1 °F /  -14.9 °C 1020.2 in /  34544 hPa SW 25.9 mph /  41.7 km/h 27.4 mph /  44.1 km/h 87 % 0.0 in /  0 mm
10:10 7.1 °F /  -13.8 °C 5.1 °F /  -14.9 °C 1020.2 in /  34544 hPa SW 17.7 mph /  28.5 km/h 25.7 mph /  41.4 km/h 87 % 0.0 in /  0 mm
10:16 7.0 °F /  -13.9 °C 5.0 °F /  -15 °C 1019.9 in /  34533.8 hPa SW 19.5 mph /  31.4 km/h 24.1 mph /  38.8 km/h 87 % 0.0 in /  0 mm
10:22 7.0 °F /  -13.9 °C 5.0 °F /  -15 °C 1019.9 in /  34533.8 hPa SSW 25.9 mph /  41.7 km/h 25.9 mph /  41.7 km/h 87 % 0.0 in /  0 mm
10:28 7.0 °F /  -13.9 °C 5.1 °F /  -14.9 °C 1019.9 in /  34533.8 hPa WSW 9.7 mph /  15.6 km/h 29.0 mph /  46.7 km/h 88 % 0.0 in /  0 mm
10:34 7.0 °F /  -13.9 °C 5.0 °F /  -15 °C 1019.9 in /  34533.8 hPa SW 17.7 mph /  28.5 km/h 20.9 mph /  33.6 km/h 87 % 0.0 in /  0 mm
10:40 7.0 °F /  -13.9 °C 5.0 °F /  -15 °C 1019.5 in /  34520.3 hPa SW 14.3 mph /  23 km/h 29.0 mph /  46.7 km/h 87 % 0.0 in /  0 mm
10:46 7.0 °F /  -13.9 °C 5.0 °F /  -15 °C 1019.9 in /  34533.8 hPa South 19.5 mph /  31.4 km/h 22.5 mph /  36.2 km/h 87 % 0.0 in /  0 mm
10:52 7.1 °F /  -13.8 °C 4.9 °F /  -15.1 °C 1019.9 in /  34533.8 hPa WSW 13.0 mph /  20.9 km/h 19.3 mph /  31.1 km/h 86 % 0.0 in /  0 mm
10:58 7.1 °F /  -13.8 °C 4.9 °F /  -15.1 °C 1019.9 in /  34533.8 hPa SSW 25.9 mph /  41.7 km/h 29.0 mph /  46.7 km/h 86 % 0.0 in /  0 mm
11:04 7.1 °F /  -13.8 °C 4.9 °F /  -15.1 °C 1019.9 in /  34533.8 hPa WSW 9.7 mph /  15.6 km/h 19.3 mph /  31.1 km/h 86 % 0.0 in /  0 mm
11:10 7.1 °F /  -13.8 °C 4.9 °F /  -15.1 °C 1019.5 in /  34520.3 hPa SW 35.4 mph /  57 km/h 35.4 mph /  57 km/h 86 % 0.0 in /  0 mm
11:16 7.2 °F /  -13.8 °C 5.0 °F /  -15 °C 1019.5 in /  34520.3 hPa SW 20.9 mph /  33.6 km/h 27.4 mph /  44.1 km/h 86 % 0.0 in /  0 mm
11:22 7.2 °F /  -13.8 °C 5.0 °F /  -15 °C 1019.5 in /  34520.3 hPa SSW 16.3 mph /  26.2 km/h 22.5 mph /  36.2 km/h 86 % 0.0 in /  0 mm
11:28 7.3 °F /  -13.7 °C 5.1 °F /  -14.9 °C 1019.5 in /  34520.3 hPa SW 13.0 mph /  20.9 km/h 27.4 mph /  44.1 km/h 86 % 0.0 in /  0 mm
11:34 7.3 °F /  -13.7 °C 4.9 °F /  -15.1 °C 1019.2 in /  34510.1 hPa SSW 19.5 mph /  31.4 km/h 29.0 mph /  46.7 km/h 85 % 0.0 in /  0 mm
11:40 7.4 °F /  -13.7 °C 5.0 °F /  -15 °C 1019.2 in /  34510.1 hPa SW 20.9 mph /  33.6 km/h 25.7 mph /  41.4 km/h 85 % 0.0 in /  0 mm
11:46 7.4 °F /  -13.7 °C 5.0 °F /  -15 °C 1019.2 in /  34510.1 hPa SW 16.3 mph /  26.2 km/h 30.6 mph /  49.2 km/h 85 % 0.0 in /  0 mm
11:52 7.4 °F /  -13.7 °C 4.9 °F /  -15.1 °C 1018.8 in /  34496.6 hPa SW 19.5 mph /  31.4 km/h 35.4 mph /  57 km/h 84 % 0.0 in /  0 mm
11:58 7.5 °F /  -13.6 °C 5.0 °F /  -15 °C 1018.8 in /  34496.6 hPa WSW 33.8 mph /  54.4 km/h 33.8 mph /  54.4 km/h 84 % 0.0 in /  0 mm
12:04 7.5 °F /  -13.6 °C 5.0 °F /  -15 °C 1018.8 in /  34496.6 hPa SW 25.9 mph /  41.7 km/h 33.8 mph /  54.4 km/h 84 % 0.0 in /  0 mm
12:10 7.5 °F /  -13.6 °C 5.0 °F /  -15 °C 1018.8 in /  34496.6 hPa SW 19.5 mph /  31.4 km/h 40.2 mph /  64.7 km/h 84 % 0.0 in /  0 mm
12:16 7.5 °F /  -13.6 °C 5.0 °F /  -15 °C 1018.5 in /  34486.4 hPa SW 22.7 mph /  36.5 km/h 30.6 mph /  49.2 km/h 84 % 0.0 in /  0 mm
12:22 7.5 °F /  -13.6 °C 5.0 °F /  -15 °C 1018.2 in /  34476.3 hPa SW 32.0 mph /  51.5 km/h 32.2 mph /  51.8 km/h 84 % 0.0 in /  0 mm
12:28 7.5 °F /  -13.6 °C 5.0 °F /  -15 °C 1018.2 in /  34476.3 hPa SW 20.9 mph /  33.6 km/h 40.2 mph /  64.7 km/h 84 % 0.0 in /  0 mm
12:34 7.5 °F /  -13.6 °C 5.0 °F /  -15 °C 1017.8 in /  34462.7 hPa SW 19.5 mph /  31.4 km/h 33.8 mph /  54.4 km/h 84 % 0.0 in /  0 mm
12:40 7.5 °F /  -13.6 °C 5.1 °F /  -14.9 °C 1017.5 in /  34452.6 hPa WSW 19.5 mph /  31.4 km/h 33.8 mph /  54.4 km/h 85 % 0.0 in /  0 mm
12:46 7.6 °F /  -13.6 °C 5.2 °F /  -14.9 °C 1017.5 in /  34452.6 hPa SW 19.5 mph /  31.4 km/h 29.0 mph /  46.7 km/h 85 % 0.0 in /  0 mm
12:52 7.7 °F /  -13.5 °C 5.2 °F /  -14.9 °C 1017.5 in /  34452.6 hPa SSW 28.8 mph /  46.3 km/h 33.8 mph /  54.4 km/h 84 % 0.0 in /  0 mm
12:58 7.7 °F /  -13.5 °C 5.2 °F /  -14.9 °C 1017.2 in /  34442.4 hPa WSW 20.9 mph /  33.6 km/h 32.2 mph /  51.8 km/h 84 % 0.0 in /  0 mm
13:04 7.7 °F /  -13.5 °C 5.2 °F /  -14.9 °C 1017.2 in /  34442.4 hPa WSW 16.3 mph /  26.2 km/h 37.0 mph /  59.5 km/h 84 % 0.0 in /  0 mm
13:10 7.7 °F /  -13.5 °C 5.2 °F /  -14.9 °C 1017.2 in /  34442.4 hPa SW 24.1 mph /  38.8 km/h 30.6 mph /  49.2 km/h 84 % 0.0 in /  0 mm
13:16 7.7 °F /  -13.5 °C 5.2 °F /  -14.9 °C 1017.2 in /  34442.4 hPa SW 16.3 mph /  26.2 km/h 32.2 mph /  51.8 km/h 84 % 0.0 in /  0 mm
13:22 7.7 °F /  -13.5 °C 5.2 °F /  -14.9 °C 1016.8 in /  34428.8 hPa SW 20.9 mph /  33.6 km/h 37.0 mph /  59.5 km/h 84 % 0.0 in /  0 mm
13:28 7.6 °F /  -13.6 °C 5.1 °F /  -14.9 °C 1016.8 in /  34428.8 hPa SW 38.5 mph /  62 km/h 38.6 mph /  62.1 km/h 84 % 0.0 in /  0 mm
13:34 7.5 °F /  -13.6 °C 5.1 °F /  -14.9 °C 1016.8 in /  34428.8 hPa SW 19.5 mph /  31.4 km/h 35.4 mph /  57 km/h 85 % 0.0 in /  0 mm
13:40 7.4 °F /  -13.7 °C 5.0 °F /  -15 °C 1016.5 in /  34418.7 hPa SW 24.1 mph /  38.8 km/h 27.4 mph /  44.1 km/h 85 % 0.0 in /  0 mm
13:46 7.5 °F /  -13.6 °C 5.1 °F /  -14.9 °C 1016.5 in /  34418.7 hPa WSW 17.7 mph /  28.5 km/h 35.4 mph /  57 km/h 85 % 0.0 in /  0 mm
13:52 7.5 °F /  -13.6 °C 5.3 °F /  -14.8 °C 1016.1 in /  34405.1 hPa SW 20.9 mph /  33.6 km/h 32.2 mph /  51.8 km/h 86 % 0.0 in /  0 mm
13:58 7.4 °F /  -13.7 °C 5.4 °F /  -14.8 °C 1016.1 in /  34405.1 hPa SSW 20.9 mph /  33.6 km/h 32.2 mph /  51.8 km/h 87 % 0.0 in /  0 mm
14:04 7.3 °F /  -13.7 °C 5.4 °F /  -14.8 °C 1016.1 in /  34405.1 hPa SW 11.1 mph /  17.9 km/h 27.4 mph /  44.1 km/h 88 % 0.0 in /  0 mm
14:10 7.3 °F /  -13.7 °C 5.4 °F /  -14.8 °C 1015.8 in /  34395 hPa SW 9.7 mph /  15.6 km/h 30.6 mph /  49.2 km/h 88 % 0.0 in /  0 mm
14:16 7.4 °F /  -13.7 °C 5.4 °F /  -14.8 °C 1015.5 in /  34384.8 hPa WSW 22.7 mph /  36.5 km/h 33.8 mph /  54.4 km/h 87 % 0.0 in /  0 mm
14:22 7.5 °F /  -13.6 °C 5.5 °F /  -14.7 °C 1015.5 in /  34384.8 hPa SW 30.6 mph /  49.2 km/h 30.6 mph /  49.2 km/h 87 % 0.0 in /  0 mm
14:28 7.6 °F /  -13.6 °C 5.4 °F /  -14.8 °C 1015.5 in /  34384.8 hPa SW 14.3 mph /  23 km/h 29.0 mph /  46.7 km/h 86 % 0.0 in /  0 mm
14:34 7.6 °F /  -13.6 °C 5.6 °F /  -14.7 °C 1015.1 in /  34371.3 hPa WSW 16.3 mph /  26.2 km/h 35.4 mph /  57 km/h 87 % 0.0 in /  0 mm
14:40 7.6 °F /  -13.6 °C 5.6 °F /  -14.7 °C 1015.1 in /  34371.3 hPa SSW 17.7 mph /  28.5 km/h 29.0 mph /  46.7 km/h 87 % 0.0 in /  0 mm
14:44 7.6 °F /  -13.6 °C 5.7 °F /  -14.6 °C 1015.1 in /  34371.3 hPa SW 16.3 mph /  26.2 km/h 22.5 mph /  36.2 km/h 88 % 0.0 in /  0 mm
14:52 7.5 °F /  -13.6 °C 5.6 °F /  -14.7 °C 1014.8 in /  34361.1 hPa SSW 24.1 mph /  38.8 km/h 38.6 mph /  62.1 km/h 88 % 0.0 in /  0 mm
14:58 7.4 °F /  -13.7 °C 5.5 °F /  -14.7 °C 1014.8 in /  34361.1 hPa SW 16.3 mph /  26.2 km/h 32.2 mph /  51.8 km/h 88 % 0.0 in /  0 mm
15:04 7.4 °F /  -13.7 °C 5.5 °F /  -14.7 °C 1014.8 in /  34361.1 hPa SW 24.1 mph /  38.8 km/h 25.7 mph /  41.4 km/h 88 % 0.0 in /  0 mm
15:10 7.5 °F /  -13.6 °C 5.6 °F /  -14.7 °C 1014.4 in /  34347.6 hPa SW 22.7 mph /  36.5 km/h 29.0 mph /  46.7 km/h 88 % 0.0 in /  0 mm
15:16 7.4 °F /  -13.7 °C 5.7 °F /  -14.6 °C 1014.4 in /  34347.6 hPa WSW 22.7 mph /  36.5 km/h 32.2 mph /  51.8 km/h 89 % 0.3 in /  7.62 mm
15:22 7.3 °F /  -13.7 °C 5.6 °F /  -14.7 °C 1014.4 in /  34347.6 hPa WSW 27.4 mph /  44.1 km/h 43.4 mph /  69.8 km/h 89 % 0.5 in /  12.7 mm
15:28 7.3 °F /  -13.7 °C 5.6 °F /  -14.7 °C 1014.1 in /  34337.4 hPa SSW 20.9 mph /  33.6 km/h 38.6 mph /  62.1 km/h 89 % 0.5 in /  12.7 mm
15:34 7.1 °F /  -13.8 °C 5.7 °F /  -14.6 °C 1014.1 in /  34337.4 hPa WSW 24.1 mph /  38.8 km/h 32.2 mph /  51.8 km/h 91 % 1.0 in /  25.4 mm
15:40 7.1 °F /  -13.8 °C 5.7 °F /  -14.6 °C 1014.1 in /  34337.4 hPa SW 16.3 mph /  26.2 km/h 33.8 mph /  54.4 km/h 91 % 1.0 in /  25.4 mm
15:46 7.1 °F /  -13.8 °C 5.9 °F /  -14.5 °C 1014.1 in /  34337.4 hPa SW 14.3 mph /  23 km/h 29.0 mph /  46.7 km/h 92 % 1.0 in /  25.4 mm
15:53 6.9 °F /  -13.9 °C 5.7 °F /  -14.6 °C 1013.8 in /  34327.3 hPa SW 17.7 mph /  28.5 km/h 33.8 mph /  54.4 km/h 92 % 1.0 in /  25.4 mm
15:59 6.8 °F /  -14 °C 5.7 °F /  -14.6 °C 1013.8 in /  34327.3 hPa SW 19.5 mph /  31.4 km/h 32.2 mph /  51.8 km/h 93 % 1.0 in /  25.4 mm
16:05 6.8 °F /  -14 °C 5.9 °F /  -14.5 °C 1013.4 in /  34313.7 hPa WSW 16.3 mph /  26.2 km/h 37.0 mph /  59.5 km/h 94 % 1.3 in /  33.02 mm
16:11 6.7 °F /  -14.1 °C 5.8 °F /  -14.6 °C 1013.4 in /  34313.7 hPa SW 24.1 mph /  38.8 km/h 29.0 mph /  46.7 km/h 94 % 1.3 in /  33.02 mm
16:17 6.7 °F /  -14.1 °C 6.0 °F /  -14.4 °C 1013.4 in /  34313.7 hPa SSW 13.0 mph /  20.9 km/h 29.0 mph /  46.7 km/h 95 % 1.0 in /  25.4 mm
16:23 6.6 °F /  -14.1 °C 5.9 °F /  -14.5 °C 1013.1 in /  34303.6 hPa SW 24.1 mph /  38.8 km/h 32.2 mph /  51.8 km/h 95 % 1.0 in /  25.4 mm
16:29 6.6 °F /  -14.1 °C 5.9 °F /  -14.5 °C 1013.1 in /  34303.6 hPa SW 20.9 mph /  33.6 km/h 25.7 mph /  41.4 km/h 95 % 0.8 in /  20.32 mm
16:35 6.7 °F /  -14.1 °C 5.8 °F /  -14.6 °C 1012.8 in /  34293.4 hPa SSW 20.9 mph /  33.6 km/h 35.4 mph /  57 km/h 94 % 0.5 in /  12.7 mm
16:41 6.8 °F /  -14 °C 5.9 °F /  -14.5 °C 1012.8 in /  34293.4 hPa WSW 16.3 mph /  26.2 km/h 37.0 mph /  59.5 km/h 94 % 0.5 in /  12.7 mm
16:47 6.8 °F /  -14 °C 5.9 °F /  -14.5 °C 1012.8 in /  34293.4 hPa SW 27.4 mph /  44.1 km/h 32.2 mph /  51.8 km/h 94 % 0.5 in /  12.7 mm
16:53 6.7 °F /  -14.1 °C 5.8 °F /  -14.6 °C 1012.8 in /  34293.4 hPa SW 24.1 mph /  38.8 km/h 30.6 mph /  49.2 km/h 94 % 0.5 in /  12.7 mm
16:59 6.7 °F /  -14.1 °C 5.8 °F /  -14.6 °C 1012.8 in /  34293.4 hPa SW 25.9 mph /  41.7 km/h 25.9 mph /  41.7 km/h 94 % 0.5 in /  12.7 mm
17:05 6.7 °F /  -14.1 °C 5.8 °F /  -14.6 °C 1012.4 in /  34279.9 hPa SW 22.7 mph /  36.5 km/h 32.2 mph /  51.8 km/h 94 % 0.5 in /  12.7 mm
17:11 6.7 °F /  -14.1 °C 5.8 °F /  -14.6 °C 1012.1 in /  34269.7 hPa SW 22.7 mph /  36.5 km/h 29.0 mph /  46.7 km/h 94 % 0.5 in /  12.7 mm
17:17 6.6 °F /  -14.1 °C 5.9 °F /  -14.5 °C 1012.1 in /  34269.7 hPa WSW 20.9 mph /  33.6 km/h 25.7 mph /  41.4 km/h 95 % 0.5 in /  12.7 mm
17:23 6.6 °F /  -14.1 °C 5.9 °F /  -14.5 °C 1012.1 in /  34269.7 hPa SW 27.4 mph /  44.1 km/h 40.2 mph /  64.7 km/h 95 % 0.5 in /  12.7 mm
17:29 6.6 °F /  -14.1 °C 5.9 °F /  -14.5 °C 1011.7 in /  34256.2 hPa WSW 17.7 mph /  28.5 km/h 37.0 mph /  59.5 km/h 95 % 0.5 in /  12.7 mm
17:35 6.6 °F /  -14.1 °C 5.9 °F /  -14.5 °C 1012.1 in /  34269.7 hPa SW 14.3 mph /  23 km/h 29.0 mph /  46.7 km/h 95 % 0.5 in /  12.7 mm
17:41 6.6 °F /  -14.1 °C 5.9 °F /  -14.5 °C 1011.7 in /  34256.2 hPa WSW 30.6 mph /  49.2 km/h 37.0 mph /  59.5 km/h 95 % 0.5 in /  12.7 mm
17:47 6.6 °F /  -14.1 °C 5.9 °F /  -14.5 °C 1011.7 in /  34256.2 hPa SW 11.1 mph /  17.9 km/h 35.4 mph /  57 km/h 95 % 0.8 in /  20.32 mm
17:53 6.6 °F /  -14.1 °C 5.9 °F /  -14.5 °C 1011.7 in /  34256.2 hPa WSW 22.7 mph /  36.5 km/h 37.0 mph /  59.5 km/h 95 % 0.8 in /  20.32 mm
17:59 6.6 °F /  -14.1 °C 5.9 °F /  -14.5 °C 1011.7 in /  34256.2 hPa SW 14.3 mph /  23 km/h 25.7 mph /  41.4 km/h 95 % 1.0 in /  25.4 mm
18:05 6.6 °F /  -14.1 °C 5.9 °F /  -14.5 °C 1011.7 in /  34256.2 hPa SW 20.9 mph /  33.6 km/h 30.6 mph /  49.2 km/h 95 % 1.3 in /  33.02 mm
18:11 6.6 °F /  -14.1 °C 5.9 °F /  -14.5 °C 1011.4 in /  34246 hPa SW 24.1 mph /  38.8 km/h 27.4 mph /  44.1 km/h 95 % 1.5 in /  38.1 mm
18:17 6.6 °F /  -14.1 °C 5.9 °F /  -14.5 °C 1011.4 in /  34246 hPa SW 16.3 mph /  26.2 km/h 32.2 mph /  51.8 km/h 95 % 1.5 in /  38.1 mm
18:23 6.6 °F /  -14.1 °C 5.9 °F /  -14.5 °C 1011.4 in /  34246 hPa SW 20.9 mph /  33.6 km/h 25.7 mph /  41.4 km/h 95 % 1.5 in /  38.1 mm
18:29 6.6 °F /  -14.1 °C 5.9 °F /  -14.5 °C 1011.1 in /  34235.8 hPa WSW 17.7 mph /  28.5 km/h 38.6 mph /  62.1 km/h 95 % 1.5 in /  38.1 mm
18:35 6.7 °F /  -14.1 °C 6.0 °F /  -14.4 °C 1011.1 in /  34235.8 hPa SW 16.3 mph /  26.2 km/h 30.6 mph /  49.2 km/h 95 % 1.8 in /  45.72 mm
18:41 6.7 °F /  -14.1 °C 6.0 °F /  -14.4 °C 1011.1 in /  34235.8 hPa SW 20.9 mph /  33.6 km/h 33.8 mph /  54.4 km/h 95 % 1.8 in /  45.72 mm
18:47 6.7 °F /  -14.1 °C 6.0 °F /  -14.4 °C 1010.7 in /  34222.3 hPa WSW 16.3 mph /  26.2 km/h 32.2 mph /  51.8 km/h 95 % 2.0 in /  50.8 mm
18:53 6.7 °F /  -14.1 °C 6.0 °F /  -14.4 °C 1010.7 in /  34222.3 hPa SW 19.5 mph /  31.4 km/h 30.6 mph /  49.2 km/h 95 % 2.0 in /  50.8 mm
18:59 6.7 °F /  -14.1 °C 6.0 °F /  -14.4 °C 1010.7 in /  34222.3 hPa SW 27.4 mph /  44.1 km/h 37.0 mph /  59.5 km/h 95 % 2.0 in /  50.8 mm
19:05 6.7 °F /  -14.1 °C 6.0 °F /  -14.4 °C 1010.7 in /  34222.3 hPa SW 17.7 mph /  28.5 km/h 24.1 mph /  38.8 km/h 95 % 2.0 in /  50.8 mm
19:11 6.7 °F /  -14.1 °C 6.0 °F /  -14.4 °C 1010.7 in /  34222.3 hPa SW 22.7 mph /  36.5 km/h 33.8 mph /  54.4 km/h 95 % 2.0 in /  50.8 mm
19:17 6.7 °F /  -14.1 °C 6.0 °F /  -14.4 °C 1010.7 in /  34222.3 hPa SW 17.7 mph /  28.5 km/h 24.1 mph /  38.8 km/h 95 % 2.0 in /  50.8 mm
19:23 6.7 °F /  -14.1 °C 6.0 °F /  -14.4 °C 1010.4 in /  34212.1 hPa WSW 20.9 mph /  33.6 km/h 27.4 mph /  44.1 km/h 95 % 2.3 in /  58.42 mm
19:29 6.8 °F /  -14 °C 6.1 °F /  -14.4 °C 1010.4 in /  34212.1 hPa SW 17.7 mph /  28.5 km/h 32.2 mph /  51.8 km/h 95 % 2.3 in /  58.42 mm
19:35 6.8 °F /  -14 °C 6.1 °F /  -14.4 °C 1010.4 in /  34212.1 hPa WSW 27.4 mph /  44.1 km/h 27.4 mph /  44.1 km/h 95 % 2.3 in /  58.42 mm
19:41 6.8 °F /  -14 °C 6.1 °F /  -14.4 °C 1010.4 in /  34212.1 hPa WSW 14.3 mph /  23 km/h 38.6 mph /  62.1 km/h 95 % 2.0 in /  50.8 mm
19:47 6.8 °F /  -14 °C 6.1 °F /  -14.4 °C 1010.4 in /  34212.1 hPa WSW 14.3 mph /  23 km/h 35.4 mph /  57 km/h 95 % 2.0 in /  50.8 mm
19:53 6.8 °F /  -14 °C 6.1 °F /  -14.4 °C 1010.4 in /  34212.1 hPa SW 19.5 mph /  31.4 km/h 32.2 mph /  51.8 km/h 95 % 2.0 in /  50.8 mm
19:59 6.8 °F /  -14 °C 6.1 °F /  -14.4 °C 1010.0 in /  34198.6 hPa West 14.3 mph /  23 km/h 40.2 mph /  64.7 km/h 95 % 2.0 in /  50.8 mm
20:05 6.8 °F /  -14 °C 6.1 °F /  -14.4 °C 1010.0 in /  34198.6 hPa SW 16.3 mph /  26.2 km/h 27.4 mph /  44.1 km/h 95 % 2.0 in /  50.8 mm
20:11 6.8 °F /  -14 °C 6.1 °F /  -14.4 °C 1010.0 in /  34198.6 hPa SW 20.9 mph /  33.6 km/h 32.2 mph /  51.8 km/h 95 % 2.3 in /  58.42 mm
20:17 6.8 °F /  -14 °C 6.1 °F /  -14.4 °C 1010.0 in /  34198.6 hPa WSW 24.1 mph /  38.8 km/h 33.8 mph /  54.4 km/h 95 % 2.3 in /  58.42 mm
20:23 6.8 °F /  -14 °C 6.1 °F /  -14.4 °C 1010.0 in /  34198.6 hPa SW 14.3 mph /  23 km/h 32.2 mph /  51.8 km/h 95 % 2.3 in /  58.42 mm
20:29 6.8 °F /  -14 °C 6.1 °F /  -14.4 °C 1010.0 in /  34198.6 hPa WSW 24.1 mph /  38.8 km/h 33.8 mph /  54.4 km/h 95 % 2.0 in /  50.8 mm
20:35 6.8 °F /  -14 °C 6.1 °F /  -14.4 °C 1009.7 in /  34188.4 hPa SW 28.8 mph /  46.3 km/h 32.2 mph /  51.8 km/h 95 % 2.3 in /  58.42 mm
20:41 6.8 °F /  -14 °C 6.1 °F /  -14.4 °C 1009.7 in /  34188.4 hPa West 17.7 mph /  28.5 km/h 33.8 mph /  54.4 km/h 95 % 2.3 in /  58.42 mm
20:47 6.8 °F /  -14 °C 6.1 °F /  -14.4 °C 1009.7 in /  34188.4 hPa SW 19.5 mph /  31.4 km/h 27.4 mph /  44.1 km/h 95 % 2.3 in /  58.42 mm
20:53 6.8 °F /  -14 °C 6.1 °F /  -14.4 °C 1009.7 in /  34188.4 hPa SW 16.3 mph /  26.2 km/h 29.0 mph /  46.7 km/h 95 % 2.3 in /  58.42 mm
20:59 6.9 °F /  -13.9 °C 6.2 °F /  -14.3 °C 1009.4 in /  34178.3 hPa WSW 28.8 mph /  46.3 km/h 37.0 mph /  59.5 km/h 95 % 2.3 in /  58.42 mm
21:05 6.9 °F /  -13.9 °C 6.2 °F /  -14.3 °C 1009.4 in /  34178.3 hPa SW 19.5 mph /  31.4 km/h 25.7 mph /  41.4 km/h 95 % 2.5 in /  63.5 mm
21:11 6.9 °F /  -13.9 °C 6.2 °F /  -14.3 °C 1009.4 in /  34178.3 hPa WSW 14.3 mph /  23 km/h 22.5 mph /  36.2 km/h 95 % 2.3 in /  58.42 mm
21:17 6.9 °F /  -13.9 °C 6.2 °F /  -14.3 °C 1009.4 in /  34178.3 hPa SW 30.6 mph /  49.2 km/h 32.2 mph /  51.8 km/h 95 % 2.3 in /  58.42 mm
21:23 6.9 °F /  -13.9 °C 6.0 °F /  -14.4 °C 1009.4 in /  34178.3 hPa West 22.7 mph /  36.5 km/h 33.8 mph /  54.4 km/h 94 % 2.5 in /  63.5 mm
21:29 7.0 °F /  -13.9 °C 5.9 °F /  -14.5 °C 1009.4 in /  34178.3 hPa West 11.1 mph /  17.9 km/h 32.2 mph /  51.8 km/h 93 % 2.8 in /  71.12 mm
21:35 7.0 °F /  -13.9 °C 6.1 °F /  -14.4 °C 1009.4 in /  34178.3 hPa West 13.0 mph /  20.9 km/h 27.4 mph /  44.1 km/h 94 % 2.5 in /  63.5 mm
21:41 7.0 °F /  -13.9 °C 6.1 °F /  -14.4 °C 1009.4 in /  34178.3 hPa West 22.7 mph /  36.5 km/h 32.2 mph /  51.8 km/h 94 % 2.5 in /  63.5 mm
21:47 7.0 °F /  -13.9 °C 6.1 °F /  -14.4 °C 1009.4 in /  34178.3 hPa West 16.3 mph /  26.2 km/h 16.3 mph /  26.2 km/h 94 % 2.3 in /  58.42 mm
21:53 6.9 °F /  -13.9 °C 6.0 °F /  -14.4 °C 1009.4 in /  34178.3 hPa West 4.7 mph /  7.6 km/h 22.5 mph /  36.2 km/h 94 % 2.5 in /  63.5 mm
21:59 6.9 °F /  -13.9 °C 6.0 °F /  -14.4 °C 1009.0 in /  34164.7 hPa West 14.3 mph /  23 km/h 19.3 mph /  31.1 km/h 94 % 2.5 in /  63.5 mm
22:05 6.9 °F /  -13.9 °C 6.0 °F /  -14.4 °C 1009.0 in /  34164.7 hPa WSW 13.0 mph /  20.9 km/h 22.5 mph /  36.2 km/h 94 % 2.5 in /  63.5 mm
22:11 6.9 °F /  -13.9 °C 6.0 °F /  -14.4 °C 1009.0 in /  34164.7 hPa West 11.1 mph /  17.9 km/h 17.7 mph /  28.5 km/h 94 % 2.5 in /  63.5 mm
22:17 6.9 °F /  -13.9 °C 6.0 °F /  -14.4 °C 1009.4 in /  34178.3 hPa WNW 9.7 mph /  15.6 km/h 24.1 mph /  38.8 km/h 94 % 2.5 in /  63.5 mm
22:23 6.5 °F /  -14.2 °C 5.3 °F /  -14.8 °C 1009.4 in /  34178.3 hPa WNW 14.3 mph /  23 km/h 25.7 mph /  41.4 km/h 92 % 2.8 in /  71.12 mm
22:29 5.8 °F /  -14.6 °C 4.4 °F /  -15.3 °C 1009.7 in /  34188.4 hPa WNW 27.4 mph /  44.1 km/h 32.2 mph /  51.8 km/h 91 % 3.8 in /  96.52 mm
22:35 5.6 °F /  -14.7 °C 4.4 °F /  -15.3 °C 1009.4 in /  34178.3 hPa WNW 13.0 mph /  20.9 km/h 17.7 mph /  28.5 km/h 92 % 3.8 in /  96.52 mm
22:41 5.4 °F /  -14.8 °C 4.2 °F /  -15.4 °C 1009.0 in /  34164.7 hPa WNW 6.4 mph /  10.3 km/h 22.5 mph /  36.2 km/h 92 % 3.8 in /  96.52 mm
22:47 5.4 °F /  -14.8 °C 4.2 °F /  -15.4 °C 1009.4 in /  34178.3 hPa NW 9.7 mph /  15.6 km/h 19.3 mph /  31.1 km/h 92 % 3.8 in /  96.52 mm
22:53 5.5 °F /  -14.7 °C 4.1 °F /  -15.5 °C 1009.0 in /  34164.7 hPa NNE 3.2 mph /  5.1 km/h 17.7 mph /  28.5 km/h 91 % 3.3 in /  83.82 mm
22:59 5.6 °F /  -14.7 °C 4.2 °F /  -15.4 °C 1009.0 in /  34164.7 hPa WNW 11.1 mph /  17.9 km/h 17.7 mph /  28.5 km/h 91 % 3.3 in /  83.82 mm
23:05 5.5 °F /  -14.7 °C 4.0 °F /  -15.6 °C 1009.0 in /  34164.7 hPa WNW 11.1 mph /  17.9 km/h 19.3 mph /  31.1 km/h 90 % 3.0 in /  76.2 mm
23:11 5.4 °F /  -14.8 °C 3.7 °F /  -15.7 °C 1008.7 in /  34154.6 hPa NW 3.2 mph /  5.1 km/h 19.3 mph /  31.1 km/h 89 % 3.0 in /  76.2 mm
23:17 5.4 °F /  -14.8 °C 3.6 °F /  -15.8 °C 1008.7 in /  34154.6 hPa WSW 3.2 mph /  5.1 km/h 16.1 mph /  25.9 km/h 88 % 3.0 in /  76.2 mm
23:23 5.4 °F /  -14.8 °C 3.7 °F /  -15.7 °C 1008.7 in /  34154.6 hPa West 4.7 mph /  7.6 km/h 11.3 mph /  18.2 km/h 89 % 2.3 in /  58.42 mm
23:29 5.3 °F /  -14.8 °C 3.6 °F /  -15.8 °C 1008.7 in /  34154.6 hPa WSW 4.7 mph /  7.6 km/h 9.7 mph /  15.6 km/h 89 % 1.5 in /  38.1 mm
23:35 5.2 °F /  -14.9 °C 3.7 °F /  -15.7 °C 1008.4 in /  34144.4 hPa SW 6.4 mph /  10.3 km/h 8.0 mph /  12.9 km/h 90 % 1.3 in /  33.02 mm
23:41 5.1 °F /  -14.9 °C 3.8 °F /  -15.7 °C 1008.4 in /  34144.4 hPa SW 4.7 mph /  7.6 km/h 9.7 mph /  15.6 km/h 91 % 1.3 in /  33.02 mm
23:47 5.1 °F /  -14.9 °C 3.8 °F /  -15.7 °C 1008.4 in /  34144.4 hPa SW 9.7 mph /  15.6 km/h 9.7 mph /  15.6 km/h 91 % 1.0 in /  25.4 mm
23:53 5.0 °F /  -15 °C 3.8 °F /  -15.7 °C 1008.4 in /  34144.4 hPa SW 4.7 mph /  7.6 km/h 8.0 mph /  12.9 km/h 92 % 1.0 in /  25.4 mm
23:59 4.9 °F /  -15.1 °C 3.7 °F /  -15.7 °C 1008.4 in /  34144.4 hPa SSW 4.7 mph /  7.6 km/h 8.0 mph /  12.9 km/h 92 % 0.8 in /  20.32 mm
Meteo18
Compliments of Weather Underground - 4 mb

Script developed by  Jim McMurry - jmcmurry@mwt.net Adapted for the template by  Wim van der Kuil - Leuven-Template.eu

You find our weather info also at:

European Weather Network

Weather Underground

Equipment we use:

Weather-station
Davis Vue

Weather-program
Meteobridge

Weather-server
Raspberry PI 2 B+

Provider
1 and 1

Davis Vue

Meteobridge

Raspberry PI 2 B+

1 and 1